createdAt,value
2019-01-29T12:55:43.249Z,1.93
2019-01-29T12:58:12.560Z,2.10
2019-01-29T13:00:51.456Z,2.47
2019-01-29T13:03:20.845Z,2.13
2019-01-29T13:05:49.888Z,2.33
2019-01-29T13:08:18.936Z,2.03
2019-01-29T13:10:48.016Z,2.17
2019-01-29T13:13:17.066Z,2.33
2019-01-29T13:15:46.101Z,2.00
2019-01-29T13:18:15.267Z,2.67
2019-01-29T13:20:44.354Z,1.73
2019-01-29T13:23:13.393Z,2.13
2019-01-29T13:25:42.414Z,2.30
2019-01-29T13:28:11.438Z,2.50
2019-01-29T13:30:40.519Z,2.60
2019-01-29T13:33:14.218Z,3.20
2019-01-29T13:35:43.379Z,2.23
2019-01-29T13:38:12.764Z,2.30
2019-01-29T13:40:42.207Z,2.67
2019-01-29T13:43:11.566Z,2.10
2019-01-29T13:45:41.724Z,2.37
2019-01-29T13:48:10.924Z,2.50
2019-01-29T13:50:43.877Z,2.63
2019-01-29T13:53:12.900Z,2.30
2019-01-29T13:55:42.291Z,2.17
2019-01-29T13:58:11.664Z,1.90
2019-01-29T14:00:41.075Z,2.60
2019-01-29T14:03:11.432Z,2.47
2019-01-29T14:05:40.537Z,2.87
2019-01-29T14:08:09.601Z,2.90
2019-01-29T14:10:39.015Z,2.90
2019-01-29T14:13:10.966Z,3.10
2019-01-29T14:15:52.727Z,2.83
2019-01-29T14:18:23.674Z,2.80
2019-01-29T14:20:52.725Z,3.13
2019-01-29T14:23:23.612Z,2.67
2019-01-29T14:25:52.637Z,3.20
2019-01-29T14:28:21.632Z,3.43
2019-01-29T14:30:50.660Z,3.20
2019-01-29T14:33:19.820Z,3.00
2019-01-29T14:35:48.868Z,4.27
2019-01-29T14:39:05.040Z,3.40
2019-01-29T14:41:35.136Z,3.87
2019-01-29T14:44:06.103Z,3.70
2019-01-29T14:46:35.140Z,3.60
2019-01-29T14:49:04.567Z,3.17
2019-01-29T14:51:33.591Z,3.00
2019-01-29T14:54:03.444Z,3.00
2019-01-29T14:56:32.395Z,3.47
2019-01-29T14:59:04.346Z,3.10
2019-01-29T15:01:34.615Z,2.80
2019-01-29T15:04:04.050Z,3.00
2019-01-29T15:06:33.425Z,3.30
2019-01-29T15:09:02.552Z,3.50
2019-01-29T15:11:31.605Z,2.97
2019-01-29T15:14:01.445Z,2.70
2019-01-29T15:16:52.363Z,3.53
2019-01-29T15:19:24.603Z,3.50
2019-01-29T15:21:53.936Z,3.73
2019-01-29T15:24:23.216Z,3.63
2019-01-29T15:26:52.412Z,3.40
2019-01-29T15:29:21.420Z,3.27
2019-01-29T15:31:50.486Z,3.20
2019-01-29T15:34:19.555Z,3.10
2019-01-29T15:36:48.616Z,4.07
2019-01-29T15:39:18.010Z,2.90
2019-01-29T15:41:46.974Z,3.00
2019-01-29T15:44:16.105Z,3.47
2019-01-29T15:46:45.089Z,3.63
2019-01-29T15:49:14.358Z,3.17
2019-01-29T15:51:43.682Z,2.97
2019-01-29T15:54:12.690Z,3.90
2019-01-29T15:56:41.694Z,3.20
2019-01-29T15:59:10.882Z,3.50
2019-01-29T16:01:42.666Z,3.30
2019-01-29T16:04:11.733Z,3.50
2019-01-29T16:06:41.111Z,3.90
2019-01-29T16:09:10.946Z,2.87
2019-01-29T16:11:40.524Z,3.07
2019-01-29T16:14:09.583Z,3.33
2019-01-29T16:16:38.672Z,3.30
2019-01-29T16:19:07.785Z,3.50
2019-01-29T16:21:37.126Z,3.80
2019-01-29T16:24:06.194Z,3.60
2019-01-29T16:26:35.264Z,3.60
2019-01-29T16:29:04.641Z,3.73
2019-01-29T16:31:33.582Z,3.23
2019-01-29T16:34:02.999Z,3.20
2019-01-29T16:36:32.934Z,3.47
2019-01-29T16:39:02.022Z,3.47
2019-01-29T16:41:33.806Z,2.80
2019-01-29T16:44:02.909Z,3.87
2019-01-29T16:46:31.954Z,4.47
2019-01-29T16:49:01.262Z,4.10
2019-01-29T16:51:30.672Z,3.60
2019-01-29T16:53:59.698Z,3.37
2019-01-29T16:56:28.759Z,4.37
2019-01-29T16:58:57.759Z,4.47
2019-01-29T17:01:27.012Z,3.33
2019-01-29T17:03:56.128Z,3.70
2019-01-29T17:06:25.125Z,3.80
2019-01-29T17:08:54.180Z,3.20
2019-01-29T17:11:23.544Z,3.53
2019-01-29T17:13:52.587Z,3.03
2019-01-29T17:16:21.749Z,3.27
2019-01-29T17:18:50.691Z,3.40
2019-01-29T17:21:19.717Z,3.30
2019-01-29T17:23:49.099Z,3.67
2019-01-29T17:26:18.221Z,4.27
2019-01-29T17:28:47.412Z,3.40
2019-01-29T17:31:16.723Z,3.13
2019-01-29T17:33:45.785Z,3.70
2019-01-29T17:36:14.828Z,3.57
2019-01-29T17:38:44.944Z,3.37
2019-01-29T17:41:14.079Z,3.67
2019-01-29T17:43:43.399Z,3.93
2019-01-29T17:46:12.806Z,3.07
2019-01-29T17:48:42.206Z,3.50
2019-01-29T17:51:11.302Z,3.80
2019-01-29T17:53:40.718Z,4.07
2019-01-29T17:56:09.759Z,3.97
2019-01-29T17:58:38.793Z,4.70
2019-01-29T18:01:08.270Z,4.30
2019-01-29T18:03:37.397Z,4.33
2019-01-29T18:06:06.436Z,4.20
2019-01-29T18:08:35.590Z,4.03
2019-01-29T18:11:04.717Z,5.20
2019-01-29T18:13:33.741Z,6.63
2019-01-29T18:16:02.798Z,6.07
2019-01-29T18:18:31.797Z,4.50
2019-01-29T18:21:00.869Z,4.20
2019-01-29T18:23:29.877Z,5.37
2019-01-29T18:25:58.843Z,5.73
2019-01-29T18:28:27.777Z,4.80
2019-01-29T18:30:57.169Z,6.10
2019-01-29T18:33:26.235Z,4.60
2019-01-29T18:35:55.195Z,4.73
2019-01-29T18:38:24.133Z,4.77
2019-01-29T18:40:55.426Z,4.80
2019-01-29T18:43:24.458Z,4.63
2019-01-29T18:45:53.496Z,5.30
2019-01-29T18:48:23.375Z,8.80
2019-01-29T18:50:53.230Z,5.47
2019-01-29T18:53:22.591Z,6.77
2019-01-29T18:55:51.628Z,4.90
2019-01-29T18:58:23.884Z,6.73
2019-01-29T19:00:54.856Z,5.43
2019-01-29T19:03:24.268Z,6.47
2019-01-29T19:05:53.355Z,6.23
2019-01-29T19:08:22.888Z,5.03
2019-01-29T19:10:54.817Z,6.03
2019-01-29T19:13:24.211Z,5.50
2019-01-29T19:15:54.020Z,9.27
2019-01-29T19:18:24.274Z,6.17
2019-01-29T19:20:53.600Z,5.57
2019-01-29T19:23:22.848Z,6.07
2019-01-29T19:25:52.524Z,5.37
2019-01-29T19:28:22.427Z,7.17
2019-01-29T19:30:51.647Z,6.13
2019-01-29T19:33:21.066Z,7.77
2019-01-29T19:35:50.459Z,6.00
2019-01-29T19:38:19.581Z,6.40
2019-01-29T19:40:51.128Z,6.43
2019-01-29T19:43:20.338Z,7.03
2019-01-29T19:45:50.692Z,6.27
2019-01-29T19:48:19.972Z,6.60
2019-01-29T19:50:49.203Z,5.83
2019-01-29T19:53:18.401Z,5.87
2019-01-29T19:55:47.548Z,5.93
2019-01-29T19:58:16.601Z,6.30
2019-01-29T20:00:45.684Z,7.73
2019-01-29T20:03:14.905Z,5.50
2019-01-29T20:05:44.039Z,6.27
2019-01-29T20:08:13.243Z,5.03
2019-01-29T20:10:42.653Z,6.03
2019-01-29T20:13:11.788Z,5.77
2019-01-29T20:15:40.974Z,5.30
2019-01-29T20:18:10.274Z,5.80
2019-01-29T20:20:40.737Z,3.90
2019-01-29T20:23:09.938Z,4.40
2019-01-29T20:25:39.128Z,4.57
2019-01-29T20:28:08.376Z,4.70
2019-01-29T20:30:38.685Z,4.57
2019-01-29T20:33:08.428Z,4.47
2019-01-29T20:35:37.567Z,4.57
2019-01-29T20:38:08.776Z,4.90
2019-01-29T20:40:38.910Z,4.07
2019-01-29T20:43:08.049Z,5.10
2019-01-29T20:45:37.555Z,4.80
2019-01-29T20:48:06.670Z,4.70
2019-01-29T20:50:36.469Z,5.43
2019-01-29T20:53:05.606Z,6.27
2019-01-29T20:55:34.738Z,4.20
2019-01-29T20:58:04.089Z,3.93
2019-01-29T21:00:35.052Z,3.97
2019-01-29T21:03:05.179Z,3.80
2019-01-29T21:05:34.388Z,6.07
2019-01-29T21:08:04.004Z,3.23
2019-01-29T21:10:33.359Z,3.70
2019-01-29T21:13:02.766Z,3.13
2019-01-29T21:15:38.001Z,3.43
2019-01-29T21:18:02.788Z,3.73
2019-01-29T21:20:32.597Z,5.07
2019-01-29T21:23:01.744Z,3.33
2019-01-29T21:25:30.828Z,3.50
2019-01-29T21:28:00.787Z,3.40
2019-01-29T21:30:34.657Z,2.90
2019-01-29T21:33:03.719Z,3.90
2019-01-29T21:35:47.919Z,3.27
2019-01-29T21:38:17.408Z,3.43
2019-01-29T21:40:47.234Z,3.53
2019-01-29T21:43:23.079Z,4.03
2019-01-29T21:45:52.590Z,4.70
2019-01-29T21:48:21.675Z,4.50
2019-01-29T21:50:50.885Z,3.20
2019-01-29T21:53:25.825Z,4.10
2019-01-29T21:55:55.084Z,4.33
2019-01-29T21:58:24.160Z,4.47
2019-01-29T22:00:53.218Z,4.50
2019-01-29T22:03:22.342Z,4.23
2019-01-29T22:05:51.627Z,4.50
2019-01-29T22:08:20.681Z,4.40
2019-01-29T22:10:49.859Z,4.37
2019-01-29T22:13:19.244Z,4.90
2019-01-29T22:15:48.200Z,4.87
2019-01-29T22:18:17.294Z,4.87
2019-01-29T22:20:46.808Z,5.50
2019-01-29T22:23:16.241Z,4.53
2019-01-29T22:25:45.402Z,5.77
2019-01-29T22:28:31.681Z,5.43
2019-01-29T22:31:01.192Z,5.23
2019-01-29T22:33:31.097Z,5.43
2019-01-29T22:36:00.747Z,6.13
2019-01-29T22:38:29.876Z,5.73
2019-01-29T22:40:59.321Z,6.50
2019-01-29T22:43:28.850Z,6.37
2019-01-29T22:45:57.941Z,6.00
2019-01-29T22:48:27.033Z,5.20
2019-01-29T22:50:56.110Z,6.20
2019-01-29T22:53:25.581Z,5.57
2019-01-29T22:55:54.696Z,6.87
2019-01-29T22:58:24.109Z,6.57
2019-01-29T23:01:30.254Z,5.70
2019-01-29T23:04:27.541Z,5.97
2019-01-29T23:07:14.971Z,6.13
2019-01-29T23:09:44.088Z,6.67
2019-01-29T23:12:13.356Z,6.60
2019-01-29T23:14:42.705Z,6.00
2019-01-29T23:17:11.922Z,6.53
2019-01-29T23:19:40.980Z,5.93
2019-01-29T23:22:10.180Z,6.53
2019-01-29T23:24:39.540Z,6.40
2019-01-29T23:27:09.160Z,6.77
2019-01-29T23:29:43.538Z,5.73
2019-01-29T23:32:09.984Z,7.20
2019-01-29T23:34:39.077Z,6.60
2019-01-29T23:37:08.611Z,7.20
2019-01-29T23:39:37.619Z,6.10
2019-01-29T23:42:06.758Z,5.93
2019-01-29T23:44:36.907Z,6.23
2019-01-29T23:47:06.226Z,6.13
2019-01-29T23:49:35.652Z,6.37
2019-01-29T23:52:05.174Z,6.53
2019-01-29T23:54:34.836Z,5.57
2019-01-29T23:57:04.263Z,6.30
2019-01-29T23:59:33.453Z,6.43
